Time;durP1;ratioP1;P1;durP2;ratioP2;P2;SDS_P1;SDS_P2;PMS_P1;PMS_P2;Temp;Humidity;BMP_temperature;BMP_pressure;BME280_temperature;BME280_humidity;BME280_pressure;Samples;Min_cycle;Max_cycle;Signal;HPM_P1;HPM_P2
2022/01/22 00:00:40;;;;;;;;;;;0.90;99.90;;;;;;4976766;28;19977;-79
2022/01/22 00:03:07;;;;;;;;;;;0.90;99.90;;;;;;4970576;28;19933;-79
2022/01/22 00:05:34;;;;;;;;;;;0.90;99.90;;;;;;4972545;28;19938;-80
2022/01/22 00:08:01;;;;;;;;;;;1.00;99.90;;;;;;4980187;28;19961;-79
2022/01/22 00:10:30;;;;;;;;;;;0.90;99.90;;;;;;4986971;28;20383;-80
2022/01/22 00:14:23;;;;;;;;;;;0.90;99.90;;;;;;4981448;28;19927;-80
2022/01/22 00:15:54;;;;;;;;;;;0.90;99.90;;;;;;4977258;28;19926;-79
2022/01/22 00:18:22;;;;;;;;;;;0.90;99.90;;;;;;4975559;28;20017;-79
2022/01/22 00:20:49;;;;;;;;;;;1.00;99.90;;;;;;4980866;28;19973;-79
2022/01/22 00:23:19;;;;;;;;;;;0.90;99.90;;;;;;4982778;28;20020;-79
2022/01/22 00:25:48;;;;;;;;;;;1.00;99.90;;;;;;4970935;28;19957;-80
2022/01/22 00:28:15;;;;;;;;;;;0.90;99.90;;;;;;4978032;28;20311;-80
2022/01/22 00:30:42;;;;;;;;;;;0.90;99.90;;;;;;4989291;28;19925;-80
2022/01/22 00:33:09;;;;;;;;;;;0.90;99.90;;;;;;4973785;28;19953;-79
2022/01/22 00:35:37;;;;;;;;;;;0.90;99.90;;;;;;4978982;28;20012;-79
2022/01/22 00:38:05;;;;;;;;;;;0.90;99.90;;;;;;5000457;28;20392;-79
2022/01/22 00:40:32;;;;;;;;;;;0.90;99.90;;;;;;4979960;28;19926;-79
2022/01/22 00:43:01;;;;;;;;;;;0.90;99.90;;;;;;4982803;28;19936;-80
2022/01/22 00:45:28;;;;;;;;;;;1.00;99.90;;;;;;4973647;28;19938;-80
2022/01/22 00:47:55;;;;;;;;;;;1.00;99.90;;;;;;4981582;28;20402;-79
2022/01/22 00:50:23;;;;;;;;;;;1.00;99.90;;;;;;4976421;28;19965;-80
2022/01/22 00:52:51;;;;;;;;;;;1.00;99.90;;;;;;4967142;28;20024;-79
2022/01/22 00:55:19;;;;;;;;;;;0.90;99.90;;;;;;4980693;28;19925;-80
2022/01/22 00:57:46;;;;;;;;;;;0.90;99.90;;;;;;4976526;28;20549;-79
2022/01/22 01:00:16;;;;;;;;;;;0.90;99.90;;;;;;4989188;28;20418;-79
2022/01/22 01:02:44;;;;;;;;;;;1.00;99.90;;;;;;4975420;28;19926;-80
2022/01/22 01:05:12;;;;;;;;;;;1.00;99.90;;;;;;4979349;28;20447;-78
2022/01/22 01:07:39;;;;;;;;;;;1.00;99.90;;;;;;4973706;28;19926;-80
2022/01/22 01:10:07;;;;;;;;;;;1.00;99.90;;;;;;5012194;28;19933;-79
2022/01/22 01:12:36;;;;;;;;;;;1.00;99.90;;;;;;4982229;28;19974;-79
2022/01/22 01:15:15;;;;;;;;;;;1.00;99.90;;;;;;4979622;28;19926;-80
2022/01/22 01:18:05;;;;;;;;;;;1.00;99.90;;;;;;4967347;28;19993;-80
2022/01/22 01:34:26;;;;;;;;;;;1.00;99.90;;;;;;5003546;28;19922;-80
2022/01/22 01:36:54;;;;;;;;;;;1.00;99.90;;;;;;4977015;28;19977;-79
2022/01/22 01:39:25;;;;;;;;;;;1.00;99.90;;;;;;4975688;28;19926;-79
2022/01/22 01:41:57;;;;;;;;;;;1.00;99.90;;;;;;4978076;28;19933;-79
2022/01/22 01:44:24;;;;;;;;;;;1.00;99.90;;;;;;4991762;28;19927;-79
2022/01/22 01:47:02;;;;;;;;;;;1.00;99.90;;;;;;4987869;28;20045;-79
2022/01/22 01:49:35;;;;;;;;;;;0.90;99.90;;;;;;5002885;28;19933;-80
2022/01/22 01:52:07;;;;;;;;;;;1.00;99.90;;;;;;4977603;28;19926;-79
2022/01/22 01:54:45;;;;;;;;;;;1.00;99.90;;;;;;4980802;28;19926;-79
2022/01/22 01:57:38;;;;;;;;;;;1.00;99.90;;;;;;4979720;28;20032;-80
2022/01/22 02:00:07;;;;;;;;;;;1.00;99.90;;;;;;4972002;28;19926;-80
2022/01/22 02:02:43;;;;;;;;;;;1.00;99.90;;;;;;4975674;28;20621;-80
2022/01/22 02:05:14;;;;;;;;;;;1.00;99.90;;;;;;4975984;28;19926;-79
2022/01/22 02:07:42;;;;;;;;;;;1.00;99.90;;;;;;4969623;28;20033;-80
2022/01/22 02:10:20;;;;;;;;;;;1.00;99.90;;;;;;5015387;28;20343;-79
2022/01/22 02:13:39;;;;;;;;;;;1.00;99.90;;;;;;4972781;28;19926;-80
2022/01/22 02:24:21;;;;;;;;;;;1.00;99.90;;;;;;4999820;28;20028;-79
2022/01/22 02:26:50;;;;;;;;;;;1.00;99.90;;;;;;4975656;28;20404;-80
2022/01/22 02:29:22;;;;;;;;;;;1.00;99.90;;;;;;4998855;28;19930;-80
2022/01/22 02:32:41;;;;;;;;;;;1.00;99.90;;;;;;4976085;28;19934;-79
2022/01/22 02:35:11;;;;;;;;;;;1.00;99.90;;;;;;4973038;28;19926;-80
2022/01/22 02:37:46;;;;;;;;;;;1.00;99.90;;;;;;4980662;28;20490;-79
2022/01/22 02:40:18;;;;;;;;;;;1.00;99.90;;;;;;4997709;28;19934;-80
2022/01/22 02:42:45;;;;;;;;;;;1.00;99.90;;;;;;4979483;28;20304;-79
2022/01/22 02:45:19;;;;;;;;;;;1.00;99.90;;;;;;4983023;28;20452;-80
2022/01/22 02:47:47;;;;;;;;;;;1.00;99.90;;;;;;4979633;28;19926;-80
2022/01/22 02:50:15;;;;;;;;;;;1.10;99.90;;;;;;5012811;28;19947;-79
2022/01/22 02:52:44;;;;;;;;;;;1.00;99.90;;;;;;4964649;28;20388;-80
2022/01/22 02:55:13;;;;;;;;;;;1.10;99.90;;;;;;4978348;28;19926;-79
2022/01/22 02:57:41;;;;;;;;;;;1.10;99.90;;;;;;4974718;28;19964;-79
2022/01/22 03:00:11;;;;;;;;;;;1.00;99.90;;;;;;4966002;28;19934;-79
2022/01/22 03:02:38;;;;;;;;;;;1.00;99.90;;;;;;4992792;28;19957;-79
2022/01/22 03:05:06;;;;;;;;;;;1.10;99.90;;;;;;4975797;28;19926;-79
2022/01/22 03:07:35;;;;;;;;;;;1.00;99.90;;;;;;4975440;28;19934;-79
2022/01/22 03:10:04;;;;;;;;;;;1.10;99.90;;;;;;4968749;28;19933;-80
2022/01/22 03:12:49;;;;;;;;;;;1.10;99.90;;;;;;4970316;28;19934;-80
2022/01/22 03:18:08;;;;;;;;;;;1.10;99.90;;;;;;4967656;28;20309;-79
2022/01/22 03:20:45;;;;;;;;;;;1.10;99.90;;;;;;4984817;28;19925;-80
2022/01/22 03:27:18;;;;;;;;;;;1.10;99.90;;;;;;4968392;28;19935;-80
2022/01/22 03:28:55;;;;;;;;;;;1.10;99.90;;;;;;4975091;28;19926;-79
2022/01/22 03:31:23;;;;;;;;;;;1.10;99.90;;;;;;4953356;28;19926;-79
2022/01/22 03:33:50;;;;;;;;;;;1.10;99.90;;;;;;4974500;28;20299;-79
2022/01/22 03:36:18;;;;;;;;;;;1.10;99.90;;;;;;4972606;28;19926;-80
2022/01/22 03:38:46;;;;;;;;;;;1.10;99.90;;;;;;4976146;28;19934;-80
2022/01/22 03:41:14;;;;;;;;;;;1.10;99.90;;;;;;4972222;28;19945;-79
2022/01/22 03:43:44;;;;;;;;;;;1.10;99.90;;;;;;4968078;28;20415;-80
2022/01/22 03:46:12;;;;;;;;;;;1.10;99.90;;;;;;4970135;28;19937;-79
2022/01/22 03:48:40;;;;;;;;;;;1.10;99.90;;;;;;4967626;28;19926;-80
2022/01/22 03:51:08;;;;;;;;;;;1.10;99.90;;;;;;4970608;28;19926;-79
2022/01/22 03:53:35;;;;;;;;;;;1.10;99.90;;;;;;4992252;28;20408;-79
2022/01/22 03:56:04;;;;;;;;;;;1.10;99.90;;;;;;4961121;28;19940;-79
2022/01/22 03:58:34;;;;;;;;;;;1.10;99.90;;;;;;4954210;28;19938;-79
2022/01/22 04:01:53;;;;;;;;;;;1.10;99.90;;;;;;4957799;28;20021;-81
2022/01/22 04:04:17;;;;;;;;;;;1.10;99.90;;;;;;4946801;28;19930;-80
2022/01/22 04:07:32;;;;;;;;;;;1.10;99.90;;;;;;4962156;28;20380;-80
2022/01/22 04:10:01;;;;;;;;;;;1.10;99.90;;;;;;4962429;28;19926;-80
2022/01/22 04:12:36;;;;;;;;;;;1.10;99.90;;;;;;4973461;28;21796;-79
2022/01/22 04:15:05;;;;;;;;;;;1.10;99.90;;;;;;4980329;28;19933;-80
2022/01/22 04:25:50;;;;;;;;;;;1.20;99.90;;;;;;4968333;28;19922;-80
2022/01/22 04:28:17;;;;;;;;;;;1.20;99.90;;;;;;4963440;28;19926;-80
2022/01/22 04:30:46;;;;;;;;;;;1.20;99.90;;;;;;4974455;28;20331;-79
2022/01/22 04:33:13;;;;;;;;;;;1.20;99.90;;;;;;4957160;28;20001;-79
2022/01/22 04:35:40;;;;;;;;;;;1.20;99.90;;;;;;4981336;28;19937;-80
2022/01/22 04:38:07;;;;;;;;;;;1.20;99.90;;;;;;4966391;28;20408;-79
2022/01/22 04:40:35;;;;;;;;;;;1.20;99.90;;;;;;4965113;28;19942;-79
2022/01/22 04:43:03;;;;;;;;;;;1.20;99.90;;;;;;4956594;28;19930;-80
2022/01/22 04:45:45;;;;;;;;;;;1.20;99.90;;;;;;4974326;28;19954;-80
2022/01/22 04:48:26;;;;;;;;;;;1.20;99.90;;;;;;4964767;28;19926;-80
2022/01/22 04:56:24;;;;;;;;;;;1.20;99.90;;;;;;5002173;28;20009;-80
2022/01/22 04:58:51;;;;;;;;;;;1.20;99.90;;;;;;4979157;28;20319;-80
2022/01/22 05:01:18;;;;;;;;;;;1.20;99.90;;;;;;4979025;28;19930;-79
2022/01/22 05:03:47;;;;;;;;;;;1.20;99.90;;;;;;4963504;28;19930;-80
2022/01/22 05:06:40;;;;;;;;;;;1.20;99.90;;;;;;4989537;28;20425;-79
2022/01/22 05:09:19;;;;;;;;;;;1.20;99.90;;;;;;4964510;28;20646;-80
2022/01/22 05:11:53;;;;;;;;;;;1.20;99.90;;;;;;4979285;28;19930;-79
2022/01/22 05:14:20;;;;;;;;;;;1.20;99.90;;;;;;4992057;28;19941;-80
2022/01/22 05:16:47;;;;;;;;;;;1.20;99.90;;;;;;4971943;28;20458;-80
2022/01/22 05:19:21;;;;;;;;;;;1.20;99.90;;;;;;4982889;28;19940;-79
2022/01/22 05:21:50;;;;;;;;;;;1.20;99.90;;;;;;4980120;28;19933;-80
2022/01/22 05:24:22;;;;;;;;;;;1.20;99.90;;;;;;4979827;28;19930;-81
2022/01/22 05:27:17;;;;;;;;;;;1.20;99.90;;;;;;4969848;28;20331;-80
2022/01/22 05:30:02;;;;;;;;;;;1.20;99.90;;;;;;4994505;28;19926;-80
2022/01/22 05:32:59;;;;;;;;;;;1.20;99.90;;;;;;4990434;28;20507;-79
2022/01/22 05:38:48;;;;;;;;;;;1.20;99.90;;;;;;4970831;28;19984;-79
2022/01/22 05:41:15;;;;;;;;;;;1.20;99.90;;;;;;4971612;28;20009;-79
2022/01/22 05:43:43;;;;;;;;;;;1.30;99.90;;;;;;4972325;28;19933;-82
2022/01/22 05:46:10;;;;;;;;;;;1.30;99.90;;;;;;4974356;28;19926;-79
2022/01/22 05:48:36;;;;;;;;;;;1.20;99.90;;;;;;4976405;28;19926;-79
2022/01/22 05:51:06;;;;;;;;;;;1.20;99.90;;;;;;4966051;28;19945;-80
2022/01/22 05:53:44;;;;;;;;;;;1.20;99.90;;;;;;4986940;28;19934;-80
2022/01/22 06:01:41;;;;;;;;;;;1.20;99.90;;;;;;4961686;28;20071;-79
2022/01/22 06:04:15;;;;;;;;;;;1.20;99.90;;;;;;4969896;28;20295;-80
2022/01/22 06:06:44;;;;;;;;;;;1.30;99.90;;;;;;5003231;28;19926;-80
2022/01/22 06:09:11;;;;;;;;;;;1.20;99.90;;;;;;4970818;28;19930;-79
2022/01/22 06:11:52;;;;;;;;;;;1.20;99.90;;;;;;4975629;28;19926;-79
2022/01/22 06:14:21;;;;;;;;;;;1.20;99.90;;;;;;4984147;28;20411;-80
2022/01/22 06:16:49;;;;;;;;;;;1.30;99.90;;;;;;4973142;28;19960;-79
2022/01/22 06:19:48;;;;;;;;;;;1.30;99.90;;;;;;4968872;28;19933;-79
2022/01/22 06:22:16;;;;;;;;;;;1.30;99.90;;;;;;4968777;28;19926;-79
2022/01/22 06:24:43;;;;;;;;;;;1.30;99.90;;;;;;4988518;28;19933;-79
2022/01/22 06:27:11;;;;;;;;;;;1.30;99.90;;;;;;4977051;28;19933;-79
2022/01/22 06:29:38;;;;;;;;;;;1.30;99.90;;;;;;4974576;28;19930;-79
2022/01/22 06:32:07;;;;;;;;;;;1.30;99.90;;;;;;5001864;28;20376;-79
2022/01/22 06:34:37;;;;;;;;;;;1.30;99.90;;;;;;4969558;28;19926;-80
2022/01/22 06:37:04;;;;;;;;;;;1.30;99.90;;;;;;5003384;28;20304;-79
2022/01/22 06:41:44;;;;;;;;;;;1.30;99.90;;;;;;4967552;28;19936;-80
2022/01/22 06:42:46;;;;;;;;;;;1.40;99.90;;;;;;4978868;28;19941;-80
2022/01/22 06:45:31;;;;;;;;;;;1.30;99.90;;;;;;4983337;28;20145;-84
2022/01/22 06:48:07;;;;;;;;;;;1.30;99.90;;;;;;4986160;28;19926;-80
2022/01/22 06:50:47;;;;;;;;;;;2.00;99.90;;;;;;4978434;28;19934;-80
2022/01/22 06:53:14;;;;;;;;;;;2.10;99.90;;;;;;4970361;28;19937;-79
2022/01/22 06:55:52;;;;;;;;;;;1.90;99.90;;;;;;4973643;28;19926;-80
2022/01/22 06:58:20;;;;;;;;;;;1.70;99.90;;;;;;4980411;28;20368;-80
2022/01/22 07:00:53;;;;;;;;;;;1.60;99.90;;;;;;4969438;28;19973;-79
2022/01/22 07:03:26;;;;;;;;;;;1.50;99.90;;;;;;4962385;28;20036;-80
2022/01/22 07:06:10;;;;;;;;;;;1.50;99.90;;;;;;4979870;28;19944;-80
2022/01/22 07:08:38;;;;;;;;;;;1.40;99.90;;;;;;4981197;28;19934;-79
2022/01/22 07:11:09;;;;;;;;;;;1.40;99.90;;;;;;4991617;28;19938;-79
2022/01/22 07:13:40;;;;;;;;;;;1.50;99.90;;;;;;4996951;28;20830;-79
2022/01/22 07:16:08;;;;;;;;;;;1.40;99.90;;;;;;4972199;28;19969;-80
2022/01/22 07:18:35;;;;;;;;;;;1.40;99.90;;;;;;5000482;28;20418;-79
2022/01/22 07:21:08;;;;;;;;;;;1.40;99.90;;;;;;4995931;28;19973;-80
2022/01/22 07:26:27;;;;;;;;;;;1.40;99.90;;;;;;4966853;28;20440;-80
2022/01/22 07:28:58;;;;;;;;;;;1.40;99.90;;;;;;4999496;28;20025;-80
2022/01/22 07:31:26;;;;;;;;;;;1.40;99.90;;;;;;4963511;28;22877;-80
2022/01/22 07:33:55;;;;;;;;;;;1.40;99.90;;;;;;4984585;28;19932;-80
2022/01/22 07:36:23;;;;;;;;;;;1.40;99.90;;;;;;4976060;28;19934;-82
2022/01/22 07:38:55;;;;;;;;;;;1.40;99.90;;;;;;4994072;28;21758;-82
2022/01/22 07:41:23;;;;;;;;;;;1.40;99.90;;;;;;4965480;28;20036;-82
2022/01/22 07:44:11;;;;;;;;;;;1.40;99.90;;;;;;4965541;28;19932;-82
2022/01/22 07:46:45;;;;;;;;;;;1.40;99.90;;;;;;4973153;28;19949;-81
2022/01/22 07:49:21;;;;;;;;;;;1.40;99.90;;;;;;4968583;28;20466;-82
2022/01/22 07:51:50;;;;;;;;;;;1.40;99.90;;;;;;4967122;28;19931;-81
2022/01/22 07:57:46;;;;;;;;;;;1.40;99.90;;;;;;4975660;28;20399;-81
2022/01/22 08:03:37;;;;;;;;;;;1.40;99.90;;;;;;4975487;28;19925;-81
2022/01/22 08:06:27;;;;;;;;;;;1.40;99.90;;;;;;4973362;28;19992;-82
2022/01/22 08:09:14;;;;;;;;;;;1.40;99.90;;;;;;4973268;28;19945;-82
2022/01/22 08:12:00;;;;;;;;;;;1.40;99.90;;;;;;4981385;28;19933;-82
2022/01/22 08:14:27;;;;;;;;;;;1.40;99.90;;;;;;4970582;28;20388;-81
2022/01/22 08:16:54;;;;;;;;;;;1.40;99.90;;;;;;4977197;28;20382;-82
2022/01/22 08:19:27;;;;;;;;;;;1.40;99.90;;;;;;4972168;28;19933;-82
2022/01/22 08:21:54;;;;;;;;;;;1.50;99.90;;;;;;4971932;28;20017;-82
2022/01/22 08:24:40;;;;;;;;;;;1.50;99.90;;;;;;4977885;28;19940;-82
2022/01/22 08:27:19;;;;;;;;;;;1.40;99.90;;;;;;5009768;28;19926;-82
2022/01/22 08:29:47;;;;;;;;;;;1.40;99.90;;;;;;5007221;28;19961;-82
2022/01/22 08:32:33;;;;;;;;;;;1.70;99.90;;;;;;4988054;28;19930;-83
2022/01/22 08:38:14;;;;;;;;;;;1.60;99.90;;;;;;4993357;28;19958;-82
2022/01/22 08:40:42;;;;;;;;;;;1.50;99.90;;;;;;4986025;28;19937;-85
2022/01/22 08:43:09;;;;;;;;;;;1.50;99.90;;;;;;5015962;28;19951;-83
2022/01/22 08:45:37;;;;;;;;;;;1.50;99.90;;;;;;4986701;28;19926;-82
2022/01/22 08:48:05;;;;;;;;;;;1.50;99.90;;;;;;4994508;28;19986;-82
2022/01/22 08:50:35;;;;;;;;;;;1.50;99.90;;;;;;5015728;28;19945;-84
2022/01/22 08:53:04;;;;;;;;;;;1.50;99.90;;;;;;4993518;28;19929;-87
2022/01/22 08:55:32;;;;;;;;;;;1.60;99.90;;;;;;4994287;28;19950;-90
2022/01/22 08:58:03;;;;;;;;;;;1.60;99.90;;;;;;5133075;23;19921;-88
2022/01/22 09:00:46;;;;;;;;;;;1.60;99.90;;;;;;5491012;23;19976;-86
2022/01/22 09:03:22;;;;;;;;;;;1.70;99.90;;;;;;5012182;28;19969;-88
2022/01/22 09:06:11;;;;;;;;;;;1.80;99.90;;;;;;5353720;23;20025;-84
2022/01/22 09:11:57;;;;;;;;;;;1.70;99.90;;;;;;5368709;23;19916;-86
2022/01/22 09:14:45;;;;;;;;;;;1.70;99.90;;;;;;4985510;28;19932;-82
2022/01/22 09:17:13;;;;;;;;;;;1.80;99.90;;;;;;5008712;28;19913;-86
2022/01/22 09:19:46;;;;;;;;;;;1.80;99.90;;;;;;5003386;28;19972;-83
2022/01/22 09:22:21;;;;;;;;;;;1.80;99.90;;;;;;5003466;28;19929;-85
2022/01/22 09:24:52;;;;;;;;;;;1.80;99.90;;;;;;5016613;28;19937;-84
2022/01/22 09:27:20;;;;;;;;;;;1.80;99.90;;;;;;5005587;28;19929;-82
2022/01/22 09:29:48;;;;;;;;;;;1.80;99.90;;;;;;5026996;28;19965;-83
2022/01/22 09:32:19;;;;;;;;;;;1.80;99.90;;;;;;5023960;28;20461;-82
2022/01/22 09:35:07;;;;;;;;;;;1.80;99.90;;;;;;5020110;28;19932;-82
2022/01/22 09:41:28;;;;;;;;;;;1.80;99.90;;;;;;5027644;28;19924;-86
2022/01/22 09:45:07;;;;;;;;;;;1.80;99.90;;;;;;4962182;28;19954;-81
2022/01/22 09:47:54;;;;;;;;;;;1.80;99.90;;;;;;5024580;28;19972;-83
2022/01/22 09:50:44;;;;;;;;;;;1.80;99.90;;;;;;5031490;28;19948;-82
2022/01/22 09:53:30;;;;;;;;;;;1.70;99.90;;;;;;5031171;28;19944;-82
2022/01/22 10:42:21;;;;;;;;;;;1.80;99.90;;;;;;5294084;23;19948;-78
2022/01/22 10:44:50;;;;;;;;;;;1.80;99.90;;;;;;5007424;28;19929;-79
2022/01/22 10:47:20;;;;;;;;;;;1.80;99.90;;;;;;5006320;28;19940;-78
2022/01/22 10:49:47;;;;;;;;;;;1.80;99.90;;;;;;5004479;28;20489;-79
2022/01/22 10:52:14;;;;;;;;;;;1.80;99.90;;;;;;5003555;28;19937;-79
2022/01/22 10:54:41;;;;;;;;;;;1.80;99.90;;;;;;5003261;28;19936;-79
2022/01/22 10:57:13;;;;;;;;;;;1.80;99.90;;;;;;5006155;28;19933;-78
2022/01/22 10:59:46;;;;;;;;;;;1.80;99.90;;;;;;5000353;28;20384;-79
2022/01/22 11:02:14;;;;;;;;;;;1.80;99.90;;;;;;5009639;28;19937;-79
2022/01/22 11:04:41;;;;;;;;;;;1.80;99.90;;;;;;5002957;28;19934;-80
2022/01/22 11:07:09;;;;;;;;;;;1.80;99.90;;;;;;5008440;28;19936;-78
2022/01/22 11:09:36;;;;;;;;;;;1.80;99.90;;;;;;5003745;28;19933;-79
2022/01/22 11:12:04;;;;;;;;;;;1.80;99.90;;;;;;5002516;28;19933;-78
2022/01/22 11:14:32;;;;;;;;;;;1.80;99.90;;;;;;4982618;28;19933;-78
2022/01/22 11:17:00;;;;;;;;;;;1.80;99.90;;;;;;4993644;28;19933;-79
2022/01/22 11:19:31;;;;;;;;;;;1.80;99.90;;;;;;4978202;28;19934;-78
2022/01/22 11:21:58;;;;;;;;;;;1.80;99.90;;;;;;4998135;28;20402;-79
2022/01/22 11:24:26;;;;;;;;;;;1.80;99.90;;;;;;4999629;28;19929;-79
2022/01/22 11:26:56;;;;;;;;;;;1.90;99.90;;;;;;5003402;28;19925;-78
2022/01/22 11:29:24;;;;;;;;;;;1.80;99.90;;;;;;4984921;28;19933;-79
2022/01/22 11:31:51;;;;;;;;;;;1.90;99.90;;;;;;5002474;28;19945;-79
2022/01/22 11:34:22;;;;;;;;;;;1.90;99.90;;;;;;4998196;28;19944;-78
2022/01/22 11:36:54;;;;;;;;;;;1.90;99.90;;;;;;5005996;28;19933;-78
2022/01/22 11:39:24;;;;;;;;;;;1.90;99.90;;;;;;4997005;28;20280;-79
2022/01/22 11:41:53;;;;;;;;;;;2.00;99.90;;;;;;5008435;28;19925;-79
2022/01/22 11:44:24;;;;;;;;;;;2.00;99.90;;;;;;4991820;28;19934;-78
2022/01/22 11:46:58;;;;;;;;;;;1.90;99.90;;;;;;5004293;28;19926;-78
2022/01/22 11:49:29;;;;;;;;;;;1.90;99.90;;;;;;5000906;28;20434;-79
2022/01/22 11:52:15;;;;;;;;;;;1.90;99.90;;;;;;5003189;28;19929;-78
2022/01/22 11:54:50;;;;;;;;;;;1.90;99.90;;;;;;5007586;28;19956;-79
2022/01/22 11:57:18;;;;;;;;;;;1.90;99.90;;;;;;5005022;28;19926;-79
2022/01/22 11:59:49;;;;;;;;;;;1.90;99.90;;;;;;4996348;28;20478;-79
2022/01/22 12:02:17;;;;;;;;;;;1.90;99.90;;;;;;4996557;28;20109;-81
2022/01/22 12:04:50;;;;;;;;;;;1.90;99.90;;;;;;4997715;28;19945;-79
2022/01/22 12:07:19;;;;;;;;;;;1.90;99.90;;;;;;4999239;28;20192;-79
2022/01/22 12:10:16;;;;;;;;;;;1.90;99.90;;;;;;5000895;28;20024;-78
2022/01/22 12:15:44;;;;;;;;;;;2.00;99.90;;;;;;5001603;28;20012;-78
2022/01/22 12:18:14;;;;;;;;;;;2.00;99.90;;;;;;5004114;28;19926;-79
2022/01/22 12:23:48;;;;;;;;;;;2.00;99.90;;;;;;5002793;28;20388;-78
2022/01/22 12:26:15;;;;;;;;;;;2.00;99.90;;;;;;5001338;28;19937;-79
2022/01/22 12:28:43;;;;;;;;;;;2.00;99.90;;;;;;5004885;28;20395;-78
2022/01/22 12:31:10;;;;;;;;;;;2.00;99.90;;;;;;5002076;28;19936;-79
2022/01/22 12:33:48;;;;;;;;;;;2.10;99.90;;;;;;5005366;28;20314;-79
2022/01/22 12:36:22;;;;;;;;;;;2.10;99.90;;;;;;4991267;28;20482;-79
2022/01/22 12:38:59;;;;;;;;;;;2.10;99.90;;;;;;5008067;28;20426;-79
2022/01/22 12:41:31;;;;;;;;;;;2.10;99.90;;;;;;5008286;28;19925;-78
2022/01/22 12:44:10;;;;;;;;;;;2.10;99.90;;;;;;5012050;28;19936;-79
2022/01/22 12:46:37;;;;;;;;;;;2.10;99.90;;;;;;4985561;28;19925;-78
2022/01/22 12:49:05;;;;;;;;;;;2.10;99.90;;;;;;5005752;28;19937;-78
2022/01/22 12:51:34;;;;;;;;;;;2.10;99.90;;;;;;5004684;28;19941;-79
2022/01/22 12:54:01;;;;;;;;;;;2.10;99.90;;;;;;5013571;28;19929;-79
2022/01/22 12:59:13;;;;;;;;;;;2.10;99.90;;;;;;5004488;28;19983;-78
2022/01/22 13:01:44;;;;;;;;;;;2.10;99.90;;;;;;5003179;28;19930;-78
2022/01/22 13:04:11;;;;;;;;;;;2.10;99.90;;;;;;5001247;28;19948;-77
2022/01/22 13:07:00;;;;;;;;;;;2.20;99.90;;;;;;4995301;28;19925;-78
2022/01/22 13:09:46;;;;;;;;;;;2.20;99.90;;;;;;4993021;28;19992;-78
2022/01/22 13:12:14;;;;;;;;;;;2.20;99.90;;;;;;4998569;28;19933;-77
2022/01/22 13:14:41;;;;;;;;;;;2.20;99.90;;;;;;5006833;28;19934;-79
2022/01/22 13:17:12;;;;;;;;;;;2.30;99.90;;;;;;5001793;28;20410;-80
2022/01/22 13:19:39;;;;;;;;;;;2.20;99.90;;;;;;5006753;28;19925;-80
2022/01/22 13:22:08;;;;;;;;;;;2.30;99.90;;;;;;5012924;28;19936;-80
2022/01/22 13:24:36;;;;;;;;;;;2.30;99.90;;;;;;5005449;28;19926;-79
2022/01/22 13:27:08;;;;;;;;;;;2.30;99.90;;;;;;5005931;28;19926;-79
2022/01/22 13:29:38;;;;;;;;;;;2.30;99.90;;;;;;5004919;28;19988;-79
2022/01/22 13:32:12;;;;;;;;;;;2.30;99.90;;;;;;5006122;28;20395;-79
2022/01/22 13:34:59;;;;;;;;;;;2.30;99.90;;;;;;5009298;28;20011;-79
2022/01/22 13:40:29;;;;;;;;;;;2.30;99.90;;;;;;5005976;28;19933;-79
2022/01/22 13:48:36;;;;;;;;;;;2.40;99.90;;;;;;5007314;28;19969;-79
2022/01/22 13:51:04;;;;;;;;;;;2.50;99.90;;;;;;5004840;28;19926;-81
2022/01/22 13:53:33;;;;;;;;;;;2.50;99.90;;;;;;4987462;28;20385;-79
2022/01/22 13:56:01;;;;;;;;;;;2.60;99.90;;;;;;5006191;28;20425;-79
2022/01/22 13:58:28;;;;;;;;;;;2.60;99.90;;;;;;5008105;28;19941;-80
2022/01/22 14:01:00;;;;;;;;;;;2.60;99.90;;;;;;4984607;28;19925;-80
2022/01/22 14:03:39;;;;;;;;;;;2.70;99.90;;;;;;4994443;28;20392;-80
2022/01/22 14:06:06;;;;;;;;;;;2.70;99.90;;;;;;5001334;28;19930;-79
2022/01/22 14:08:35;;;;;;;;;;;2.70;99.90;;;;;;5012215;28;20396;-79
2022/01/22 14:11:06;;;;;;;;;;;2.70;99.90;;;;;;5006171;28;19933;-79
2022/01/22 14:13:33;;;;;;;;;;;2.70;99.90;;;;;;5006738;28;19933;-79
2022/01/22 14:16:14;;;;;;;;;;;2.70;99.90;;;;;;5005201;28;20399;-79
2022/01/22 14:18:42;;;;;;;;;;;2.70;99.90;;;;;;4997316;28;20454;-79
2022/01/22 14:21:12;;;;;;;;;;;2.70;99.90;;;;;;5005742;28;19925;-79
2022/01/22 14:23:40;;;;;;;;;;;2.70;99.90;;;;;;4986576;28;19925;-79
2022/01/22 14:26:09;;;;;;;;;;;2.70;99.90;;;;;;4989054;28;20064;-81
2022/01/22 14:28:41;;;;;;;;;;;2.70;99.90;;;;;;4988338;28;19933;-80
2022/01/22 14:31:18;;;;;;;;;;;2.70;99.90;;;;;;5002066;28;19926;-81
2022/01/22 14:33:45;;;;;;;;;;;2.70;99.90;;;;;;5004557;28;19933;-79
2022/01/22 14:36:15;;;;;;;;;;;2.70;99.90;;;;;;4998499;28;21999;-79
2022/01/22 14:38:48;;;;;;;;;;;2.70;99.90;;;;;;5014248;28;19932;-79
2022/01/22 14:44:19;;;;;;;;;;;2.70;99.90;;;;;;4987752;28;20079;-79
2022/01/22 14:46:52;;;;;;;;;;;2.70;99.90;;;;;;5009270;28;19934;-78
2022/01/22 14:49:22;;;;;;;;;;;2.70;99.90;;;;;;5006383;28;19933;-79
2022/01/22 14:51:48;;;;;;;;;;;2.60;99.90;;;;;;4999688;28;20482;-79
2022/01/22 14:54:18;;;;;;;;;;;2.60;99.90;;;;;;4985273;28;20335;-80
2022/01/22 14:56:45;;;;;;;;;;;2.60;99.90;;;;;;4997096;28;20056;-79
2022/01/22 14:59:12;;;;;;;;;;;2.60;99.90;;;;;;4986676;28;19988;-79
2022/01/22 15:01:39;;;;;;;;;;;2.60;99.90;;;;;;5003933;28;19933;-80
2022/01/22 15:04:06;;;;;;;;;;;2.60;99.90;;;;;;5009685;28;19941;-80
2022/01/22 15:06:33;;;;;;;;;;;2.60;99.90;;;;;;5006101;28;19925;-79
2022/01/22 15:09:00;;;;;;;;;;;2.60;99.90;;;;;;4996981;28;19932;-79
2022/01/22 15:11:28;;;;;;;;;;;2.60;99.90;;;;;;5009567;28;19984;-80
2022/01/22 15:13:55;;;;;;;;;;;2.60;99.90;;;;;;5006706;28;19933;-79
2022/01/22 15:16:23;;;;;;;;;;;2.60;99.90;;;;;;4988142;28;20000;-79
2022/01/22 15:19:00;;;;;;;;;;;2.60;99.90;;;;;;5004797;28;19931;-79
2022/01/22 15:21:28;;;;;;;;;;;2.60;99.90;;;;;;4998339;28;19930;-78
2022/01/22 15:23:55;;;;;;;;;;;2.60;99.90;;;;;;5003328;28;19941;-80
2022/01/22 15:26:23;;;;;;;;;;;2.60;99.90;;;;;;4995012;28;19934;-79
2022/01/22 15:28:56;;;;;;;;;;;2.60;99.90;;;;;;5000242;28;19926;-79
2022/01/22 15:31:34;;;;;;;;;;;2.60;99.90;;;;;;4995038;28;19937;-78
2022/01/22 15:34:11;;;;;;;;;;;2.60;99.90;;;;;;5004777;28;20414;-79
2022/01/22 15:36:39;;;;;;;;;;;2.60;99.90;;;;;;4996431;28;20048;-79
2022/01/22 15:39:06;;;;;;;;;;;2.60;99.90;;;;;;4998352;28;20561;-79
2022/01/22 15:41:34;;;;;;;;;;;2.60;99.90;;;;;;4998647;28;19926;-79
2022/01/22 15:44:04;;;;;;;;;;;2.60;99.90;;;;;;4989534;28;19972;-79
2022/01/22 15:46:31;;;;;;;;;;;2.60;99.90;;;;;;5008676;28;19933;-79
2022/01/22 15:48:58;;;;;;;;;;;2.60;99.90;;;;;;5008348;28;20017;-79
2022/01/22 15:51:25;;;;;;;;;;;2.60;99.90;;;;;;5011522;28;19930;-79
2022/01/22 15:53:52;;;;;;;;;;;2.70;99.90;;;;;;4989664;28;19930;-79
2022/01/22 15:56:19;;;;;;;;;;;2.70;99.90;;;;;;4992563;28;19972;-79
2022/01/22 15:58:46;;;;;;;;;;;2.70;99.90;;;;;;5007053;28;19926;-80
2022/01/22 16:01:15;;;;;;;;;;;2.70;99.90;;;;;;5002312;28;19989;-79
2022/01/22 16:03:45;;;;;;;;;;;2.70;99.90;;;;;;5007969;28;20015;-79
2022/01/22 16:06:19;;;;;;;;;;;2.70;99.90;;;;;;5008349;28;19925;-79
2022/01/22 16:08:47;;;;;;;;;;;2.70;99.90;;;;;;5007707;28;19925;-79
2022/01/22 16:11:14;;;;;;;;;;;2.70;99.90;;;;;;5009765;28;19929;-79
2022/01/22 16:13:42;;;;;;;;;;;2.70;99.90;;;;;;5004440;28;19933;-78
2022/01/22 16:16:09;;;;;;;;;;;2.70;99.90;;;;;;5004065;28;19976;-79
2022/01/22 16:18:38;;;;;;;;;;;2.70;99.90;;;;;;5012172;28;20294;-79
2022/01/22 16:21:05;;;;;;;;;;;2.70;99.90;;;;;;5006364;28;19925;-78
2022/01/22 16:23:32;;;;;;;;;;;2.60;99.90;;;;;;5013158;28;19933;-78
2022/01/22 16:25:59;;;;;;;;;;;2.60;99.90;;;;;;5008728;28;19948;-79
2022/01/22 16:28:26;;;;;;;;;;;2.60;99.90;;;;;;4990537;28;19934;-79
2022/01/22 16:30:53;;;;;;;;;;;2.60;99.90;;;;;;5006382;28;20358;-79
2022/01/22 16:33:20;;;;;;;;;;;2.60;99.90;;;;;;5010404;28;20421;-78
2022/01/22 16:35:53;;;;;;;;;;;2.60;99.90;;;;;;5005685;28;19925;-79
2022/01/22 16:38:21;;;;;;;;;;;2.60;99.90;;;;;;5008818;28;19934;-79
2022/01/22 16:40:48;;;;;;;;;;;2.60;99.90;;;;;;4985914;28;19933;-79
2022/01/22 16:43:15;;;;;;;;;;;2.60;99.90;;;;;;4992593;28;19929;-78
2022/01/22 16:45:56;;;;;;;;;;;2.60;99.90;;;;;;5002464;28;19934;-80
2022/01/22 16:51:28;;;;;;;;;;;2.60;99.90;;;;;;5003066;28;20041;-79
2022/01/22 16:56:48;;;;;;;;;;;2.60;99.90;;;;;;5014316;28;19921;-78
2022/01/22 16:59:18;;;;;;;;;;;2.60;99.90;;;;;;4989327;28;19932;-80
2022/01/22 17:01:47;;;;;;;;;;;2.60;99.90;;;;;;5006826;28;20406;-80
2022/01/22 17:04:19;;;;;;;;;;;2.60;99.90;;;;;;5004550;28;19932;-80
2022/01/22 17:06:47;;;;;;;;;;;2.60;99.90;;;;;;5012267;28;19941;-80
2022/01/22 17:10:03;;;;;;;;;;;2.60;99.90;;;;;;5005966;28;20820;-80
2022/01/22 17:14:52;;;;;;;;;;;2.60;99.90;;;;;;5006634;28;19963;-80
2022/01/22 17:17:20;;;;;;;;;;;2.60;99.90;;;;;;5017002;28;20019;-80
2022/01/22 17:19:46;;;;;;;;;;;2.60;99.90;;;;;;5006782;28;19931;-80
2022/01/22 17:22:15;;;;;;;;;;;2.60;99.90;;;;;;4988645;28;19973;-80
2022/01/22 17:24:43;;;;;;;;;;;2.60;99.90;;;;;;5009508;28;19957;-81